Time,TemperatureF,DewpointF,PressureIn,WindDirection,WindDirectionDegrees,WindSpeedMPH,WindSpeedGustMPH,Humidity,HourlyPrecipIn,Conditions,Clouds,dailyrainin,SoftwareType,DateUTC
2013-02-04 00:00:00,21.7,16.2,29.93,WNW,288,21.0,31.0,79,0.00,,,0.00,meteohub,2013-02-04 05:00:00,
2013-02-04 00:02:00,21.9,16.3,29.93,NW,315,22.0,31.0,79,0.00,,,0.00,meteohub,2013-02-04 05:02:00,
2013-02-04 00:03:00,21.9,16.2,29.94,WNW,296,19.0,31.0,78,0.00,,,0.00,meteohub,2013-02-04 05:03:00,
2013-02-04 00:08:00,21.9,16.2,29.93,WNW,300,18.0,31.0,78,0.00,,,0.00,meteohub,2013-02-04 05:08:00,
2013-02-04 00:13:00,21.9,16.3,29.94,WNW,286,27.0,29.0,79,0.00,,,0.00,meteohub,2013-02-04 05:13:00,
2013-02-04 00:18:00,21.7,17.1,29.94,WNW,298,27.0,28.0,82,0.00,,,0.00,meteohub,2013-02-04 05:18:00,
2013-02-04 00:23:00,21.2,17.6,29.94,West,281,21.0,30.0,86,0.00,,,0.00,meteohub,2013-02-04 05:23:00,
2013-02-04 00:29:00,21.6,17.2,29.94,WNW,290,24.0,30.0,83,0.00,,,0.00,meteohub,2013-02-04 05:29:00,
2013-02-04 00:34:00,21.7,17.1,29.94,WNW,300,21.0,30.0,82,0.00,,,0.00,meteohub,2013-02-04 05:34:00,
2013-02-04 00:39:00,21.6,17.2,29.94,WNW,285,22.0,30.0,83,0.00,,,0.00,meteohub,2013-02-04 05:39:00,
2013-02-04 00:44:00,21.9,16.7,29.94,WNW,289,23.0,29.0,80,0.00,,,0.00,meteohub,2013-02-04 05:44:00,
2013-02-04 00:49:00,21.9,16.7,29.94,WNW,282,23.0,31.0,80,0.00,,,0.00,meteohub,2013-02-04 05:49:00,
2013-02-04 00:54:00,21.2,17.4,29.94,WNW,290,27.0,32.0,85,0.00,,,0.00,meteohub,2013-02-04 05:54:00,
2013-02-04 00:59:00,21.0,16.3,29.94,WNW,285,23.0,32.0,82,0.00,,,0.00,meteohub,2013-02-04 05:59:00,
2013-02-04 01:04:00,21.2,16.3,29.94,WNW,286,26.0,32.0,81,0.00,,,0.00,meteohub,2013-02-04 06:04:00,
2013-02-04 01:09:00,21.4,15.8,29.94,WNW,287,18.0,32.0,79,0.00,,,0.00,meteohub,2013-02-04 06:09:00,
2013-02-04 01:14:00,21.0,15.8,29.94,WNW,282,28.0,32.0,80,0.00,,,0.00,meteohub,2013-02-04 06:14:00,
2013-02-04 01:19:00,21.2,14.2,29.94,West,279,30.0,33.0,74,0.00,,,0.00,meteohub,2013-02-04 06:19:00,
2013-02-04 01:24:00,20.8,15.6,29.94,WNW,284,25.0,33.0,80,0.00,,,0.00,meteohub,2013-02-04 06:24:00,
2013-02-04 01:29:00,20.7,15.8,29.95,WNW,282,27.0,34.0,81,0.00,,,0.00,meteohub,2013-02-04 06:29:00,
2013-02-04 01:34:00,19.9,16.7,29.95,West,277,21.0,34.0,87,0.00,,,0.00,meteohub,2013-02-04 06:34:00,
2013-02-04 01:39:00,20.5,16.3,29.95,WNW,286,24.0,34.0,84,0.00,,,0.00,meteohub,2013-02-04 06:39:00,
2013-02-04 01:44:00,20.7,15.8,29.95,West,271,23.0,32.0,81,0.00,,,0.00,meteohub,2013-02-04 06:44:00,
2013-02-04 01:49:00,20.8,16.0,29.95,WNW,286,24.0,32.0,81,0.00,,,0.00,meteohub,2013-02-04 06:49:00,
2013-02-04 01:54:00,20.7,16.3,29.95,WNW,287,25.0,32.0,83,0.00,,,0.00,meteohub,2013-02-04 06:54:00,
2013-02-04 01:59:00,20.3,15.4,29.96,West,281,22.0,31.0,81,0.00,,,0.00,meteohub,2013-02-04 06:59:00,
2013-02-04 02:04:00,19.9,16.0,29.96,West,278,26.0,32.0,84,0.00,,,0.00,meteohub,2013-02-04 07:04:00,
2013-02-04 02:09:00,20.3,15.4,29.96,West,280,30.0,32.0,81,0.00,,,0.00,meteohub,2013-02-04 07:09:00,
2013-02-04 02:14:00,20.3,13.6,29.96,West,272,22.0,33.0,75,0.00,,,0.00,meteohub,2013-02-04 07:14:00,
2013-02-04 02:20:00,20.1,14.0,29.97,WNW,287,22.0,33.0,77,0.00,,,0.00,meteohub,2013-02-04 07:20:00,
2013-02-04 02:25:00,20.1,14.4,29.97,West,266,28.0,33.0,78,0.00,,,0.00,meteohub,2013-02-04 07:25:00,
2013-02-04 02:30:00,19.9,13.3,29.97,West,265,28.0,32.0,75,0.00,,,0.00,meteohub,2013-02-04 07:30:00,
2013-02-04 02:35:00,19.9,13.6,29.97,West,277,20.0,32.0,76,0.00,,,0.00,meteohub,2013-02-04 07:35:00,
2013-02-04 02:40:00,19.9,13.8,29.97,WNW,284,20.0,31.0,77,0.00,,,0.00,meteohub,2013-02-04 07:40:00,
2013-02-04 02:45:00,19.9,13.6,29.97,West,275,32.0,32.0,76,0.00,,,0.00,meteohub,2013-02-04 07:45:00,
2013-02-04 02:50:00,19.8,13.1,29.98,West,275,26.0,32.0,75,0.00,,,0.00,meteohub,2013-02-04 07:50:00,
2013-02-04 02:55:00,19.8,13.5,29.98,West,275,23.0,32.0,76,0.00,,,0.00,meteohub,2013-02-04 07:55:00,
2013-02-04 03:00:00,19.8,13.1,29.98,West,278,29.0,32.0,75,0.00,,,0.00,meteohub,2013-02-04 08:00:00,
2013-02-04 03:05:00,19.8,12.7,29.98,WNW,300,27.0,32.0,74,0.00,,,0.00,meteohub,2013-02-04 08:05:00,
2013-02-04 03:10:00,19.8,12.7,29.99,WNW,290,21.0,33.0,74,0.00,,,0.00,meteohub,2013-02-04 08:10:00,
2013-02-04 03:15:00,19.8,13.1,29.99,WNW,283,24.0,33.0,75,0.00,,,0.00,meteohub,2013-02-04 08:15:00,
2013-02-04 03:20:00,19.8,13.1,29.99,WNW,294,25.0,33.0,75,0.00,,,0.00,meteohub,2013-02-04 08:20:00,
2013-02-04 03:25:00,19.8,13.1,29.99,WNW,285,21.0,32.0,75,0.00,,,0.00,meteohub,2013-02-04 08:25:00,
2013-02-04 03:30:00,19.8,12.7,29.99,WNW,288,27.0,34.0,74,0.00,,,0.00,meteohub,2013-02-04 08:30:00,
2013-02-04 03:35:00,19.8,12.6,29.99,WNW,293,26.0,34.0,73,0.00,,,0.00,meteohub,2013-02-04 08:35:00,
2013-02-04 03:41:00,19.8,13.1,29.99,WNW,298,27.0,34.0,75,0.00,,,0.00,meteohub,2013-02-04 08:41:00,
2013-02-04 03:46:00,19.8,12.7,29.99,West,278,22.0,33.0,74,0.00,,,0.00,meteohub,2013-02-04 08:46:00,
2013-02-04 03:51:00,19.8,12.7,29.99,WNW,284,20.0,33.0,74,0.00,,,0.00,meteohub,2013-02-04 08:51:00,
2013-02-04 03:56:00,19.8,12.6,29.99,West,280,23.0,33.0,73,0.00,,,0.00,meteohub,2013-02-04 08:56:00,
2013-02-04 04:01:00,19.8,12.6,29.99,West,267,22.0,30.0,73,0.00,,,0.00,meteohub,2013-02-04 09:01:00,
2013-02-04 04:06:00,19.8,11.5,29.99,WNW,283,28.0,33.0,70,0.00,,,0.00,meteohub,2013-02-04 09:06:00,
2013-02-04 04:11:00,19.8,12.6,30.00,WNW,283,29.0,34.0,73,0.00,,,0.00,meteohub,2013-02-04 09:11:00,
2013-02-04 04:16:00,19.8,12.2,29.99,WNW,293,26.0,34.0,72,0.00,,,0.00,meteohub,2013-02-04 09:16:00,
2013-02-04 04:21:00,19.8,11.5,30.00,WNW,292,21.0,34.0,70,0.00,,,0.00,meteohub,2013-02-04 09:21:00,
2013-02-04 04:26:00,19.8,11.8,30.00,WNW,290,26.0,33.0,71,0.00,,,0.00,meteohub,2013-02-04 09:26:00,
2013-02-04 04:31:00,19.9,12.7,29.99,WNW,282,23.0,33.0,73,0.00,,,0.00,meteohub,2013-02-04 09:31:00,
2013-02-04 04:36:00,19.9,12.4,30.00,West,271,23.0,33.0,72,0.00,,,0.00,meteohub,2013-02-04 09:36:00,
2013-02-04 04:41:00,19.8,11.5,30.00,WNW,288,21.0,33.0,70,0.00,,,0.00,meteohub,2013-02-04 09:41:00,
2013-02-04 04:46:00,19.9,12.0,30.00,WNW,283,28.0,33.0,71,0.00,,,0.00,meteohub,2013-02-04 09:46:00,
2013-02-04 04:51:00,19.9,13.3,30.00,WNW,295,24.0,33.0,75,0.00,,,0.00,meteohub,2013-02-04 09:51:00,
2013-02-04 04:56:00,19.9,12.0,30.00,West,278,26.0,31.0,71,0.00,,,0.00,meteohub,2013-02-04 09:56:00,
2013-02-04 05:01:00,19.9,12.4,30.01,WNW,288,30.0,33.0,72,0.00,,,0.00,meteohub,2013-02-04 10:01:00,
2013-02-04 05:06:00,19.8,11.8,30.00,WNW,290,21.0,33.0,71,0.00,,,0.00,meteohub,2013-02-04 10:06:00,
2013-02-04 05:11:00,19.9,12.7,30.00,West,274,26.0,33.0,73,0.00,,,0.00,meteohub,2013-02-04 10:11:00,
2013-02-04 05:16:00,19.9,12.0,30.00,NW,311,24.0,33.0,71,0.00,,,0.00,meteohub,2013-02-04 10:16:00,
2013-02-04 05:21:00,19.9,11.5,30.00,WNW,293,19.0,32.0,69,0.00,,,0.00,meteohub,2013-02-04 10:21:00,
2013-02-04 05:27:00,19.8,11.5,30.00,WNW,283,18.0,32.0,70,0.00,,,0.00,meteohub,2013-02-04 10:27:00,
2013-02-04 05:32:00,19.8,10.6,30.00,WNW,290,23.0,31.0,67,0.00,,,0.00,meteohub,2013-02-04 10:32:00,
2013-02-04 05:37:00,19.8,11.5,29.99,WNW,292,20.0,34.0,70,0.00,,,0.00,meteohub,2013-02-04 10:37:00,
2013-02-04 05:42:00,19.8,11.5,29.99,WNW,296,20.0,34.0,70,0.00,,,0.00,meteohub,2013-02-04 10:42:00,
2013-02-04 05:47:00,19.9,12.0,30.00,West,280,21.0,31.0,71,0.00,,,0.00,meteohub,2013-02-04 10:47:00,
2013-02-04 05:52:00,19.8,11.8,29.99,WNW,284,19.0,33.0,71,0.00,,,0.00,meteohub,2013-02-04 10:52:00,
2013-02-04 05:57:00,19.8,11.8,29.99,WNW,284,22.0,33.0,71,0.00,,,0.00,meteohub,2013-02-04 10:57:00,
2013-02-04 06:02:00,19.9,12.0,30.00,WNW,290,23.0,33.0,71,0.00,,,0.00,meteohub,2013-02-04 11:02:00,
2013-02-04 06:07:00,19.9,12.7,30.00,WNW,292,22.0,28.0,73,0.00,,,0.00,meteohub,2013-02-04 11:07:00,
2013-02-04 06:12:00,19.9,12.7,29.99,WNW,298,22.0,28.0,73,0.00,,,0.00,meteohub,2013-02-04 11:12:00,
2013-02-04 06:17:00,19.8,12.2,30.00,WNW,300,17.0,27.0,72,0.00,,,0.00,meteohub,2013-02-04 11:17:00,
2013-02-04 06:22:00,19.9,12.7,30.00,WNW,288,21.0,27.0,73,0.00,,,0.00,meteohub,2013-02-04 11:22:00,
2013-02-04 06:27:00,19.9,13.3,30.00,WNW,300,17.0,27.0,75,0.00,,,0.00,meteohub,2013-02-04 11:27:00,
2013-02-04 06:32:00,19.8,12.7,30.00,WNW,295,18.0,27.0,74,0.00,,,0.00,meteohub,2013-02-04 11:32:00,
2013-02-04 06:37:00,19.9,13.6,30.00,WNW,297,22.0,24.0,76,0.00,,,0.00,meteohub,2013-02-04 11:37:00,
2013-02-04 06:42:00,19.9,13.3,30.00,WNW,300,17.0,24.0,75,0.00,,,0.00,meteohub,2013-02-04 11:42:00,
2013-02-04 06:47:00,19.9,13.3,30.00,WNW,301,18.0,27.0,75,0.00,,,0.00,meteohub,2013-02-04 11:47:00,
2013-02-04 06:52:00,20.1,13.8,30.00,WNW,285,12.0,27.0,76,0.00,,,0.00,meteohub,2013-02-04 11:52:00,
2013-02-04 06:57:00,20.1,13.5,30.01,WNW,285,17.0,27.0,75,0.00,,,0.00,meteohub,2013-02-04 11:57:00,
2013-02-04 07:02:00,19.9,13.6,30.01,WNW,302,18.0,26.0,76,0.00,,,0.00,meteohub,2013-02-04 12:02:00,
2013-02-04 07:08:00,19.9,13.3,30.01,West,277,14.0,25.0,75,0.00,,,0.00,meteohub,2013-02-04 12:08:00,
2013-02-04 07:13:00,19.9,13.6,30.01,WNW,282,20.0,25.0,76,0.00,,,0.00,meteohub,2013-02-04 12:13:00,
2013-02-04 07:18:00,19.9,13.6,30.00,WNW,297,14.0,25.0,76,0.00,,,0.00,meteohub,2013-02-04 12:18:00,
2013-02-04 07:23:00,19.9,13.6,30.00,WNW,284,18.0,25.0,76,0.00,,,0.00,meteohub,2013-02-04 12:23:00,
2013-02-04 07:28:00,19.9,13.8,30.00,WNW,292,15.0,25.0,77,0.00,,,0.00,meteohub,2013-02-04 12:28:00,
2013-02-04 07:33:00,19.9,14.2,30.00,WNW,288,18.0,21.0,78,0.00,,,0.00,meteohub,2013-02-04 12:33:00,
2013-02-04 07:38:00,19.9,13.6,30.00,WNW,296,16.0,21.0,76,0.00,,,0.00,meteohub,2013-02-04 12:38:00,
2013-02-04 07:43:00,20.1,14.0,30.00,WNW,292,19.0,22.0,77,0.00,,,0.00,meteohub,2013-02-04 12:43:00,
2013-02-04 07:48:00,20.5,14.7,30.00,WNW,292,13.0,22.0,78,0.00,,,0.00,meteohub,2013-02-04 12:48:00,
2013-02-04 07:53:00,20.3,14.2,30.00,West,279,17.0,22.0,77,0.00,,,0.00,meteohub,2013-02-04 12:53:00,
2013-02-04 07:58:00,20.1,14.0,30.00,West,281,15.0,22.0,77,0.00,,,0.00,meteohub,2013-02-04 12:58:00,
2013-02-04 08:03:00,19.9,13.3,30.00,WNW,298,16.0,22.0,75,0.00,,,0.00,meteohub,2013-02-04 13:03:00,
2013-02-04 08:08:00,20.1,14.0,30.00,WNW,284,15.0,23.0,77,0.00,,,0.00,meteohub,2013-02-04 13:08:00,
2013-02-04 08:13:00,20.3,14.2,30.00,West,272,17.0,23.0,77,0.00,,,0.00,meteohub,2013-02-04 13:13:00,
2013-02-04 08:18:00,20.5,14.7,30.00,WNW,292,15.0,23.0,78,0.00,,,0.00,meteohub,2013-02-04 13:18:00,
2013-02-04 08:24:00,20.5,15.1,30.00,West,271,16.0,21.0,79,0.00,,,0.00,meteohub,2013-02-04 13:24:00,
2013-02-04 08:29:00,20.5,15.1,30.00,West,277,13.0,21.0,79,0.00,,,0.00,meteohub,2013-02-04 13:29:00,
2013-02-04 08:34:00,19.8,14.5,30.00,SSW,192,13.0,22.0,80,0.00,,,0.00,meteohub,2013-02-04 13:34:00,
2013-02-04 08:39:00,18.5,14.7,30.00,SSW,210,12.0,22.0,85,0.00,,,0.00,meteohub,2013-02-04 13:39:00,
2013-02-04 08:44:00,17.8,14.9,30.00,SSW,195,10.0,22.0,88,0.00,,,0.00,meteohub,2013-02-04 13:44:00,
2013-02-04 08:49:00,17.6,14.9,30.00,SW,229,11.0,16.0,89,0.00,,,0.00,meteohub,2013-02-04 13:49:00,
2013-02-04 08:54:00,17.4,15.1,30.00,SW,221,13.0,15.0,90,0.00,,,0.00,meteohub,2013-02-04 13:54:00,
2013-02-04 08:59:00,17.4,15.3,30.00,SW,222,7.0,15.0,91,0.00,,,0.00,meteohub,2013-02-04 13:59:00,
2013-02-04 09:04:00,17.6,15.4,30.01,SW,234,5.0,14.0,91,0.00,,,0.00,meteohub,2013-02-04 14:04:00,
2013-02-04 09:09:00,17.8,15.6,30.00,SSW,202,6.0,14.0,91,0.00,,,0.00,meteohub,2013-02-04 14:09:00,
2013-02-04 09:14:00,17.6,15.4,30.00,SSW,213,10.0,14.0,91,0.00,,,0.00,meteohub,2013-02-04 14:14:00,
2013-02-04 09:19:00,17.6,15.4,30.00,SW,223,10.0,13.0,91,0.00,,,0.00,meteohub,2013-02-04 14:19:00,
2013-02-04 09:24:00,17.8,15.6,30.00,SW,224,10.0,13.0,91,0.00,,,0.00,meteohub,2013-02-04 14:24:00,
2013-02-04 09:29:00,17.8,15.8,29.99,SSW,209,9.0,13.0,92,0.00,,,0.00,meteohub,2013-02-04 14:29:00,
2013-02-04 09:35:00,18.0,16.0,29.99,SW,215,11.0,14.0,92,0.00,,,0.00,meteohub,2013-02-04 14:35:00,
2013-02-04 09:40:00,18.0,15.8,29.99,SW,226,6.0,14.0,91,0.00,,,0.00,meteohub,2013-02-04 14:40:00,
2013-02-04 09:45:00,18.1,16.0,30.00,SW,215,10.0,15.0,91,0.00,,,0.00,meteohub,2013-02-04 14:45:00,
2013-02-04 09:50:00,18.1,16.0,30.00,WSW,242,11.0,15.0,91,0.00,,,0.00,meteohub,2013-02-04 14:50:00,
2013-02-04 09:55:00,18.3,16.2,29.99,SW,219,7.0,14.0,91,0.00,,,0.00,meteohub,2013-02-04 14:55:00,
2013-02-04 10:00:00,18.3,16.2,29.99,SW,230,6.0,14.0,91,0.00,,,0.00,meteohub,2013-02-04 15:00:00,
2013-02-04 10:05:00,18.5,16.3,29.99,SW,219,7.0,14.0,91,0.00,,,0.00,meteohub,2013-02-04 15:05:00,
2013-02-04 10:10:00,18.7,16.2,29.99,SW,219,7.0,15.0,90,0.00,,,0.00,meteohub,2013-02-04 15:10:00,
2013-02-04 10:15:00,18.9,16.7,29.99,WSW,237,11.0,16.0,91,0.00,,,0.00,meteohub,2013-02-04 15:15:00,
2013-02-04 10:20:00,18.9,16.3,29.99,WSW,238,9.0,16.0,90,0.00,,,0.00,meteohub,2013-02-04 15:20:00,
2013-02-04 10:25:00,19.0,16.5,29.99,WSW,250,13.0,16.0,90,0.00,,,0.00,meteohub,2013-02-04 15:25:00,
2013-02-04 10:30:00,19.2,16.7,29.99,SW,234,10.0,16.0,90,0.00,,,0.00,meteohub,2013-02-04 15:30:00,
2013-02-04 10:35:00,19.2,16.7,29.99,WSW,246,7.0,16.0,90,0.00,,,0.00,meteohub,2013-02-04 15:35:00,
2013-02-04 10:40:00,19.4,16.9,29.99,WSW,242,10.0,16.0,90,0.00,,,0.00,meteohub,2013-02-04 15:40:00,
2013-02-04 10:45:00,19.6,17.1,29.99,SW,236,7.0,16.0,90,0.00,,,0.00,meteohub,2013-02-04 15:45:00,
2013-02-04 10:50:00,19.8,17.2,29.99,WSW,245,10.0,14.0,90,0.00,,,0.00,meteohub,2013-02-04 15:50:00,
2013-02-04 10:55:00,19.8,17.2,29.99,WSW,246,12.0,15.0,90,0.00,,,0.00,meteohub,2013-02-04 15:55:00,
2013-02-04 11:00:00,19.8,17.2,29.99,SW,227,11.0,15.0,90,0.00,,,0.00,meteohub,2013-02-04 16:00:00,
2013-02-04 11:06:00,19.9,17.4,29.98,SW,235,9.0,15.0,90,0.00,,,0.00,meteohub,2013-02-04 16:06:00,
2013-02-04 11:11:00,20.1,17.6,29.98,SW,234,9.0,14.0,90,0.00,,,0.00,meteohub,2013-02-04 16:11:00,
2013-02-04 11:16:00,20.1,17.6,29.99,WSW,248,12.0,15.0,90,0.00,,,0.00,meteohub,2013-02-04 16:16:00,
2013-02-04 11:21:00,20.5,18.0,29.99,WSW,255,16.0,16.0,90,0.00,,,0.00,meteohub,2013-02-04 16:21:00,
2013-02-04 11:26:00,20.3,17.8,29.98,SW,224,11.0,19.0,90,0.00,,,0.00,meteohub,2013-02-04 16:26:00,
2013-02-04 11:31:00,20.5,18.0,29.98,West,259,10.0,19.0,90,0.00,,,0.00,meteohub,2013-02-04 16:31:00,
2013-02-04 11:36:00,20.5,18.0,29.98,WSW,257,13.0,19.0,90,0.00,,,0.00,meteohub,2013-02-04 16:36:00,
2013-02-04 11:41:00,20.5,18.0,29.98,West,263,12.0,16.0,90,0.00,,,0.00,meteohub,2013-02-04 16:41:00,
2013-02-04 11:46:00,20.7,18.5,29.97,West,267,11.0,16.0,91,0.00,,,0.00,meteohub,2013-02-04 16:46:00,
2013-02-04 11:51:00,20.7,18.5,29.97,West,269,11.0,16.0,91,0.00,,,0.00,meteohub,2013-02-04 16:51:00,
2013-02-04 11:56:00,20.5,18.3,29.97,West,269,11.0,15.0,91,0.00,,,0.00,meteohub,2013-02-04 16:56:00,
2013-02-04 12:01:00,20.7,18.5,29.97,West,266,12.0,15.0,91,0.00,,,0.00,meteohub,2013-02-04 17:01:00,
2013-02-04 12:06:00,20.7,18.5,29.96,West,273,10.0,14.0,91,0.00,,,0.00,meteohub,2013-02-04 17:06:00,
2013-02-04 12:11:00,20.7,18.5,29.96,West,279,9.0,13.0,91,0.00,,,0.00,meteohub,2013-02-04 17:11:00,
2013-02-04 12:16:00,20.7,18.7,29.96,West,278,9.0,12.0,92,0.00,,,0.00,meteohub,2013-02-04 17:16:00,
2013-02-04 12:21:00,20.7,18.7,29.96,West,271,10.0,12.0,92,0.00,,,0.00,meteohub,2013-02-04 17:21:00,
2013-02-04 12:26:00,20.8,18.9,29.96,West,263,11.0,12.0,92,0.00,,,0.00,meteohub,2013-02-04 17:26:00,
2013-02-04 12:31:00,21.0,19.0,29.96,West,270,12.0,12.0,92,0.00,,,0.00,meteohub,2013-02-04 17:31:00,
2013-02-04 12:36:00,21.0,18.9,29.96,West,269,9.0,15.0,91,0.00,,,0.00,meteohub,2013-02-04 17:36:00,
2013-02-04 12:41:00,20.8,18.3,29.95,West,269,12.0,15.0,90,0.00,,,0.00,meteohub,2013-02-04 17:41:00,
2013-02-04 12:47:00,20.8,18.7,29.95,West,269,11.0,16.0,91,0.00,,,0.00,meteohub,2013-02-04 17:47:00,
2013-02-04 12:52:00,20.7,18.7,29.95,NW,304,9.0,16.0,92,0.00,,,0.00,meteohub,2013-02-04 17:52:00,
2013-02-04 12:57:00,20.5,18.5,29.95,WNW,302,6.0,15.0,92,0.00,,,0.00,meteohub,2013-02-04 17:57:00,
2013-02-04 13:02:00,20.5,18.9,29.95,NW,315,5.0,15.0,93,0.00,,,0.00,meteohub,2013-02-04 18:02:00,
2013-02-04 13:07:00,20.5,18.9,29.94,NW,317,6.0,12.0,93,0.00,,,0.00,meteohub,2013-02-04 18:07:00,
2013-02-04 13:12:00,20.5,18.9,29.94,NW,318,5.0,10.0,93,0.00,,,0.00,meteohub,2013-02-04 18:12:00,
2013-02-04 13:17:00,20.5,18.9,29.94,NW,318,0.0,10.0,93,0.00,,,0.00,meteohub,2013-02-04 18:17:00,
2013-02-04 13:22:00,20.5,19.0,29.94,NW,319,6.0,8.0,94,0.00,,,0.00,meteohub,2013-02-04 18:22:00,
2013-02-04 13:27:00,20.5,19.0,29.94,NW,318,3.0,6.0,94,0.00,,,0.00,meteohub,2013-02-04 18:27:00,
2013-02-04 13:32:00,20.5,19.0,29.94,NW,319,4.0,6.0,94,0.00,,,0.00,meteohub,2013-02-04 18:32:00,
2013-02-04 13:37:00,20.7,19.2,29.94,NW,320,2.0,6.0,94,0.00,,,0.00,meteohub,2013-02-04 18:37:00,
2013-02-04 13:42:00,20.7,19.2,29.94,NW,320,2.0,6.0,94,0.00,,,0.00,meteohub,2013-02-04 18:42:00,
2013-02-04 13:47:00,20.7,19.2,29.94,NW,320,0.0,5.0,94,0.00,,,0.00,meteohub,2013-02-04 18:47:00,
2013-02-04 13:52:00,20.7,19.2,29.94,NW,321,0.0,5.0,94,0.00,,,0.00,meteohub,2013-02-04 18:52:00,
2013-02-04 13:57:00,20.7,19.2,29.94,NW,322,5.0,5.0,94,0.00,,,0.00,meteohub,2013-02-04 18:57:00,
2013-02-04 14:02:00,20.7,19.2,29.93,NW,323,3.0,6.0,94,0.00,,,0.00,meteohub,2013-02-04 19:02:00,
2013-02-04 14:07:00,20.8,19.4,29.94,NW,322,4.0,6.0,94,0.00,,,0.00,meteohub,2013-02-04 19:07:00,
2013-02-04 14:12:00,20.8,19.4,29.93,NW,322,3.0,6.0,94,0.00,,,0.00,meteohub,2013-02-04 19:12:00,
2013-02-04 14:17:00,20.8,19.4,29.93,NW,320,5.0,6.0,94,0.00,,,0.00,meteohub,2013-02-04 19:17:00,
2013-02-04 14:22:00,20.7,19.2,29.93,NW,316,4.0,6.0,94,0.00,,,0.00,meteohub,2013-02-04 19:22:00,
2013-02-04 14:27:00,20.7,19.2,29.93,NW,311,4.0,6.0,94,0.00,,,0.00,meteohub,2013-02-04 19:27:00,
2013-02-04 14:32:00,20.7,19.2,29.93,NW,309,3.0,6.0,94,0.00,,,0.00,meteohub,2013-02-04 19:32:00,
2013-02-04 14:37:00,20.7,19.2,29.93,NW,309,0.0,6.0,94,0.00,,,0.00,meteohub,2013-02-04 19:37:00,
2013-02-04 14:42:00,20.8,19.4,29.93,NW,309,0.0,5.0,94,0.00,,,0.00,meteohub,2013-02-04 19:42:00,
2013-02-04 14:47:00,20.8,19.4,29.92,NW,309,0.0,4.0,94,0.00,,,0.00,meteohub,2013-02-04 19:47:00,
2013-02-04 14:52:00,21.4,19.9,29.92,NW,309,0.0,0.0,94,0.00,,,0.00,meteohub,2013-02-04 19:52:00,
2013-02-04 14:57:00,21.7,20.3,29.92,NW,309,0.0,0.0,94,0.00,,,0.00,meteohub,2013-02-04 19:57:00,
2013-02-04 15:02:00,21.7,20.3,29.92,NW,309,0.0,0.0,94,0.00,,,0.00,meteohub,2013-02-04 20:02:00,
2013-02-04 15:07:00,21.9,20.5,29.92,NW,309,0.0,0.0,94,0.01,,,0.01,meteohub,2013-02-04 20:07:00,
2013-02-04 15:12:00,22.5,21.0,29.92,NW,309,0.0,0.0,94,0.01,,,0.01,meteohub,2013-02-04 20:12:00,
2013-02-04 15:17:00,22.5,21.0,29.91,NW,309,0.0,0.0,94,0.01,,,0.01,meteohub,2013-02-04 20:17:00,
2013-02-04 15:23:00,21.6,19.9,29.91,NNW,327,0.0,0.0,93,0.01,,,0.01,meteohub,2013-02-04 20:23:00,
2013-02-04 15:28:00,20.7,19.0,29.91,NNW,335,2.0,0.0,93,0.01,,,0.01,meteohub,2013-02-04 20:28:00,
2013-02-04 15:33:00,20.5,19.0,29.91,NNW,335,2.0,5.0,94,0.01,,,0.01,meteohub,2013-02-04 20:33:00,
2013-02-04 15:38:00,20.5,19.0,29.92,NNW,335,3.0,5.0,94,0.01,,,0.01,meteohub,2013-02-04 20:38:00,
2013-02-04 15:43:00,20.3,18.9,29.91,NNW,340,3.0,5.0,94,0.01,,,0.01,meteohub,2013-02-04 20:43:00,
2013-02-04 15:48:00,20.1,18.7,29.91,NNE,13,2.0,5.0,94,0.01,,,0.01,meteohub,2013-02-04 20:48:00,
2013-02-04 15:53:00,20.3,18.9,29.91,NNE,13,4.0,5.0,94,0.01,,,0.01,meteohub,2013-02-04 20:53:00,
2013-02-04 15:58:00,20.3,19.0,29.91,NNE,13,2.0,5.0,95,0.01,,,0.01,meteohub,2013-02-04 20:58:00,
2013-02-04 16:03:00,20.3,19.0,29.91,NNE,13,2.0,5.0,95,0.00,,,0.01,meteohub,2013-02-04 21:03:00,
2013-02-04 16:08:00,20.1,18.9,29.91,NE,41,2.0,5.0,95,0.00,,,0.01,meteohub,2013-02-04 21:08:00,
2013-02-04 16:13:00,20.1,18.9,29.91,NE,45,4.0,4.0,95,0.00,,,0.01,meteohub,2013-02-04 21:13:00,
2013-02-04 16:19:00,19.9,18.7,29.90,NE,45,3.0,4.0,95,0.00,,,0.01,meteohub,2013-02-04 21:19:00,
2013-02-04 16:24:00,19.9,18.7,29.90,NE,45,2.0,4.0,95,0.00,,,0.01,meteohub,2013-02-04 21:24:00,
2013-02-04 16:29:00,19.9,18.7,29.90,NE,45,1.0,4.0,95,0.00,,,0.01,meteohub,2013-02-04 21:29:00,
2013-02-04 16:34:00,19.9,18.7,29.90,NE,45,1.0,4.0,95,0.00,,,0.01,meteohub,2013-02-04 21:34:00,
2013-02-04 16:39:00,19.8,18.5,29.90,NE,45,1.0,3.0,95,0.00,,,0.01,meteohub,2013-02-04 21:39:00,
2013-02-04 16:44:00,19.9,18.7,29.90,NE,45,3.0,3.0,95,0.00,,,0.01,meteohub,2013-02-04 21:44:00,
2013-02-04 16:49:00,19.9,18.7,29.90,NE,45,4.0,4.0,95,0.00,,,0.01,meteohub,2013-02-04 21:49:00,
2013-02-04 16:54:00,19.9,18.7,29.90,NE,50,5.0,5.0,95,0.00,,,0.01,meteohub,2013-02-04 21:54:00,
2013-02-04 16:59:00,19.8,18.5,29.89,ENE,58,5.0,5.0,95,0.00,,,0.01,meteohub,2013-02-04 21:59:00,
2013-02-04 17:04:00,19.8,18.5,29.89,ENE,64,5.0,6.0,95,0.00,,,0.01,meteohub,2013-02-04 22:04:00,
2013-02-04 17:09:00,19.8,18.9,29.89,ENE,64,5.0,6.0,96,0.00,,,0.01,meteohub,2013-02-04 22:09:00,
2013-02-04 17:14:00,19.8,18.9,29.89,ENE,64,6.0,6.0,96,0.00,,,0.01,meteohub,2013-02-04 22:14:00,
2013-02-04 17:20:00,19.8,18.9,29.89,ENE,64,5.0,6.0,96,0.00,,,0.01,meteohub,2013-02-04 22:20:00,
2013-02-04 17:25:00,19.8,18.5,29.89,ENE,64,4.0,6.0,95,0.00,,,0.01,meteohub,2013-02-04 22:25:00,
2013-02-04 17:30:00,19.8,18.9,29.89,ENE,64,4.0,6.0,96,0.00,,,0.01,meteohub,2013-02-04 22:30:00,
2013-02-04 17:35:00,19.8,18.9,29.89,ENE,64,3.0,5.0,96,0.00,,,0.01,meteohub,2013-02-04 22:35:00,
2013-02-04 17:40:00,19.8,18.9,29.89,ENE,64,5.0,6.0,96,0.00,,,0.01,meteohub,2013-02-04 22:40:00,
2013-02-04 17:45:00,19.8,18.9,29.89,ENE,64,2.0,6.0,96,0.00,,,0.01,meteohub,2013-02-04 22:45:00,
2013-02-04 17:50:00,19.8,18.9,29.89,ENE,65,4.0,6.0,96,0.00,,,0.01,meteohub,2013-02-04 22:50:00,
2013-02-04 17:55:00,19.8,18.9,29.89,ENE,67,4.0,5.0,96,0.00,,,0.01,meteohub,2013-02-04 22:55:00,
2013-02-04 18:00:00,19.8,18.9,29.89,ENE,69,5.0,5.0,96,0.00,,,0.01,meteohub,2013-02-04 23:00:00,
2013-02-04 18:05:00,19.8,18.9,29.90,ENE,71,4.0,5.0,96,0.00,,,0.01,meteohub,2013-02-04 23:05:00,
2013-02-04 18:10:00,19.8,18.5,29.90,ENE,71,4.0,5.0,95,0.00,,,0.01,meteohub,2013-02-04 23:10:00,
2013-02-04 18:15:00,19.8,18.5,29.90,ENE,71,4.0,5.0,95,0.00,,,0.01,meteohub,2013-02-04 23:15:00,
2013-02-04 18:21:00,19.8,18.9,29.90,ENE,71,4.0,5.0,96,0.00,,,0.01,meteohub,2013-02-04 23:21:00,
2013-02-04 18:26:00,19.8,18.9,29.90,ENE,72,3.0,5.0,96,0.00,,,0.01,meteohub,2013-02-04 23:26:00,
2013-02-04 18:31:00,19.8,18.9,29.89,ENE,73,3.0,5.0,96,0.00,,,0.01,meteohub,2013-02-04 23:31:00,
2013-02-04 18:36:00,19.8,18.5,29.89,ENE,73,2.0,5.0,95,0.00,,,0.01,meteohub,2013-02-04 23:36:00,
2013-02-04 18:41:00,19.8,18.5,29.90,ENE,73,3.0,4.0,95,0.00,,,0.01,meteohub,2013-02-04 23:41:00,
2013-02-04 18:46:00,19.9,18.7,29.90,ENE,75,2.0,4.0,95,0.00,,,0.01,meteohub,2013-02-04 23:46:00,
2013-02-04 18:51:00,19.9,18.7,29.90,ENE,74,2.0,4.0,95,0.00,,,0.01,meteohub,2013-02-04 23:51:00,
2013-02-04 18:56:00,19.9,18.7,29.90,ENE,74,2.0,4.0,95,0.00,,,0.01,meteohub,2013-02-04 23:56:00,
2013-02-04 19:01:00,19.9,18.7,29.90,ENE,74,3.0,3.0,95,0.00,,,0.01,meteohub,2013-02-05 00:01:00,
2013-02-04 19:06:00,19.8,18.5,29.90,ENE,74,3.0,3.0,95,0.00,,,0.01,meteohub,2013-02-05 00:06:00,
2013-02-04 19:11:00,19.8,18.5,29.89,ENE,74,3.0,4.0,95,0.00,,,0.01,meteohub,2013-02-05 00:11:00,
2013-02-04 19:16:00,19.8,18.5,29.89,ENE,74,4.0,4.0,95,0.00,,,0.01,meteohub,2013-02-05 00:16:00,
2013-02-04 19:21:00,19.8,18.5,29.89,ENE,74,3.0,4.0,95,0.00,,,0.01,meteohub,2013-02-05 00:21:00,
2013-02-04 19:26:00,19.8,18.5,29.89,ENE,75,2.0,4.0,95,0.00,,,0.01,meteohub,2013-02-05 00:26:00,
2013-02-04 19:31:00,19.8,18.5,29.89,ENE,74,2.0,4.0,95,0.00,,,0.01,meteohub,2013-02-05 00:31:00,
2013-02-04 19:36:00,19.8,18.5,29.89,ENE,74,2.0,3.0,95,0.00,,,0.01,meteohub,2013-02-05 00:36:00,
2013-02-04 19:42:00,19.8,18.5,29.89,ENE,75,3.0,3.0,95,0.00,,,0.01,meteohub,2013-02-05 00:42:00,
2013-02-04 19:47:00,19.8,18.5,29.89,ENE,74,4.0,4.0,95,0.00,,,0.01,meteohub,2013-02-05 00:47:00,
2013-02-04 19:52:00,19.8,18.5,29.89,ENE,74,4.0,5.0,95,0.00,,,0.01,meteohub,2013-02-05 00:52:00,
2013-02-04 19:57:00,19.8,18.5,29.89,ENE,75,3.0,5.0,95,0.00,,,0.01,meteohub,2013-02-05 00:57:00,
2013-02-04 20:02:00,19.8,18.5,29.89,ENE,74,4.0,5.0,95,0.00,,,0.01,meteohub,2013-02-05 01:02:00,
2013-02-04 20:07:00,19.8,18.5,29.89,ENE,74,4.0,4.0,95,0.00,,,0.01,meteohub,2013-02-05 01:07:00,
2013-02-04 20:12:00,19.8,18.5,29.89,ENE,74,5.0,5.0,95,0.00,,,0.01,meteohub,2013-02-05 01:12:00,
2013-02-04 20:17:00,19.8,18.5,29.89,ENE,76,4.0,5.0,95,0.00,,,0.01,meteohub,2013-02-05 01:17:00,
2013-02-04 20:22:00,19.8,18.3,29.89,ENE,76,4.0,6.0,94,0.00,,,0.01,meteohub,2013-02-05 01:22:00,
2013-02-04 20:27:00,19.8,18.3,29.89,ENE,78,5.0,6.0,94,0.00,,,0.01,meteohub,2013-02-05 01:27:00,
2013-02-04 20:32:00,19.8,18.3,29.89,ENE,78,4.0,5.0,94,0.00,,,0.01,meteohub,2013-02-05 01:32:00,
2013-02-04 20:37:00,19.9,18.5,29.89,ENE,78,3.0,5.0,94,0.00,,,0.01,meteohub,2013-02-05 01:37:00,
2013-02-04 20:42:00,19.9,18.5,29.89,ENE,78,2.0,5.0,94,0.00,,,0.01,meteohub,2013-02-05 01:42:00,
2013-02-04 20:47:00,19.9,18.5,29.90,ENE,78,2.0,4.0,94,0.00,,,0.01,meteohub,2013-02-05 01:47:00,
2013-02-04 20:52:00,19.9,18.5,29.90,ENE,78,3.0,4.0,94,0.00,,,0.01,meteohub,2013-02-05 01:52:00,
2013-02-04 20:57:00,19.9,18.5,29.90,ENE,78,3.0,4.0,94,0.00,,,0.01,meteohub,2013-02-05 01:57:00,
2013-02-04 21:02:00,19.9,18.3,29.90,ENE,78,4.0,4.0,93,0.00,,,0.01,meteohub,2013-02-05 02:02:00,
2013-02-04 21:07:00,20.1,18.7,29.90,East,80,3.0,4.0,94,0.00,,,0.01,meteohub,2013-02-05 02:07:00,
2013-02-04 21:13:00,20.1,18.5,29.90,East,81,4.0,5.0,93,0.00,,,0.01,meteohub,2013-02-05 02:13:00,
2013-02-04 21:18:00,20.1,18.5,29.90,East,81,3.0,5.0,93,0.00,,,0.01,meteohub,2013-02-05 02:18:00,
2013-02-04 21:23:00,20.1,18.5,29.90,East,82,3.0,4.0,93,0.00,,,0.01,meteohub,2013-02-05 02:23:00,
2013-02-04 21:28:00,20.1,18.5,29.90,East,83,3.0,4.0,93,0.00,,,0.01,meteohub,2013-02-05 02:28:00,
2013-02-04 21:33:00,20.1,18.5,29.90,East,83,3.0,5.0,93,0.00,,,0.01,meteohub,2013-02-05 02:33:00,
2013-02-04 21:38:00,20.1,18.5,29.90,East,83,2.0,5.0,93,0.00,,,0.01,meteohub,2013-02-05 02:38:00,
2013-02-04 21:43:00,20.1,18.5,29.90,East,83,2.0,5.0,93,0.00,,,0.01,meteohub,2013-02-05 02:43:00,
2013-02-04 21:48:00,20.1,18.5,29.90,East,83,1.0,4.0,93,0.00,,,0.01,meteohub,2013-02-05 02:48:00,
2013-02-04 21:53:00,20.3,18.3,29.90,East,83,2.0,3.0,92,0.00,,,0.01,meteohub,2013-02-05 02:53:00,
2013-02-04 21:58:00,20.3,18.3,29.90,East,83,2.0,3.0,92,0.00,,,0.01,meteohub,2013-02-05 02:58:00,
2013-02-04 22:03:00,20.5,18.5,29.90,East,83,1.0,3.0,92,0.00,,,0.01,meteohub,2013-02-05 03:03:00,
2013-02-04 22:08:00,20.5,18.5,29.90,East,83,2.0,3.0,92,0.00,,,0.01,meteohub,2013-02-05 03:08:00,
2013-02-04 22:13:00,20.5,18.5,29.90,East,83,1.0,3.0,92,0.00,,,0.01,meteohub,2013-02-05 03:13:00,
2013-02-04 22:19:00,20.5,18.5,29.90,East,83,0.0,3.0,92,0.00,,,0.01,meteohub,2013-02-05 03:19:00,
2013-02-04 22:24:00,20.5,18.5,29.90,East,83,0.0,2.0,92,0.00,,,0.01,meteohub,2013-02-05 03:24:00,
2013-02-04 22:29:00,20.5,18.5,29.90,East,83,0.0,2.0,92,0.00,,,0.01,meteohub,2013-02-05 03:29:00,
2013-02-04 22:34:00,20.7,18.7,29.90,East,83,0.0,1.0,92,0.00,,,0.01,meteohub,2013-02-05 03:34:00,
2013-02-04 22:39:00,20.7,18.7,29.90,East,83,1.0,0.0,92,0.00,,,0.01,meteohub,2013-02-05 03:39:00,
2013-02-04 22:44:00,20.7,18.7,29.90,East,83,0.0,2.0,92,0.00,,,0.01,meteohub,2013-02-05 03:44:00,
2013-02-04 22:49:00,20.8,18.9,29.90,East,83,0.0,2.0,92,0.00,,,0.01,meteohub,2013-02-05 03:49:00,
2013-02-04 22:54:00,20.8,18.9,29.90,East,83,0.0,2.0,92,0.00,,,0.01,meteohub,2013-02-05 03:54:00,
2013-02-04 22:59:00,20.8,19.2,29.90,East,83,0.0,0.0,93,0.00,,,0.01,meteohub,2013-02-05 03:59:00,
2013-02-04 23:04:00,20.8,18.9,29.90,East,83,0.0,0.0,92,0.00,,,0.01,meteohub,2013-02-05 04:04:00,
2013-02-04 23:09:00,20.8,19.2,29.90,East,83,0.0,0.0,93,0.00,,,0.01,meteohub,2013-02-05 04:09:00,
2013-02-04 23:14:00,20.8,19.2,29.90,East,83,0.0,0.0,93,0.00,,,0.01,meteohub,2013-02-05 04:14:00,
2013-02-04 23:19:00,20.8,19.2,29.90,East,83,0.0,0.0,93,0.00,,,0.01,meteohub,2013-02-05 04:19:00,
2013-02-04 23:24:00,20.8,18.9,29.90,East,83,0.0,0.0,92,0.00,,,0.01,meteohub,2013-02-05 04:24:00,
2013-02-04 23:29:00,20.8,18.9,29.90,East,83,0.0,0.0,92,0.00,,,0.01,meteohub,2013-02-05 04:29:00,
2013-02-04 23:34:00,20.8,18.9,29.91,East,83,0.0,0.0,92,0.00,,,0.01,meteohub,2013-02-05 04:34:00,
2013-02-04 23:40:00,20.8,19.2,29.90,East,83,0.0,0.0,93,0.00,,,0.01,meteohub,2013-02-05 04:40:00,
2013-02-04 23:45:00,20.8,19.2,29.90,East,83,0.0,0.0,93,0.00,,,0.01,meteohub,2013-02-05 04:45:00,
2013-02-04 23:50:00,20.8,19.2,29.90,East,83,0.0,0.0,93,0.00,,,0.01,meteohub,2013-02-05 04:50:00,
2013-02-04 23:55:00,20.7,19.0,29.90,East,83,0.0,0.0,93,0.00,,,0.01,meteohub,2013-02-05 04:55:00,